Romang, Argentina
Current Conditions -  °F | °C
As of 11:00 AM on Monday 26 Jan 2015 (Local Time) from SARE Reporting Station
Clear Clear  
Wind Chill: 88°   Ceiling: Unl
Heat Index: 98°   Visibility: 6mi
Dew Point: 75°   Wind: 7mph
Humidity: 66%   Direction: 20°NNE
Pressure: 29.83"   Gusts: NA
Location:  29.49°S, 59.75°W
Report Text: SARE 261400Z 02006KT CAVOK 31/24 Q1010
Loading
Personal Weather Stations






























Interactive Weather Map New forecast layout! Learn more

10-Day Weather Forecast

Advertisements
Track Severe Weather on mobile